createdAt,value
2022-08-27T00:00:52.686Z,43.72
2022-08-27T00:03:21.573Z,43.42
2022-08-27T00:05:50.335Z,42.42
2022-08-27T00:08:18.931Z,47.17
2022-08-27T00:10:47.732Z,44.42
2022-08-27T00:13:16.917Z,51.03
2022-08-27T00:15:45.846Z,135.90
2022-08-27T00:18:14.693Z,50.05
2022-08-27T00:20:44.377Z,46.53
2022-08-27T00:23:13.287Z,40.67
2022-08-27T00:25:42.065Z,38.33
2022-08-27T00:28:10.916Z,62.08
2022-08-27T00:30:40.616Z,53.03
2022-08-27T00:33:20.275Z,49.95
2022-08-27T00:35:48.933Z,44.30
2022-08-27T00:38:18.433Z,51.63
2022-08-27T00:40:56.746Z,54.05
2022-08-27T00:43:33.490Z,52.58
2022-08-27T00:46:12.233Z,57.08
2022-08-27T00:48:41.055Z,63.13
2022-08-27T00:51:09.732Z,84.93
2022-08-27T00:53:38.647Z,72.70
2022-08-27T00:56:14.123Z,63.88
2022-08-27T00:58:47.645Z,46.58
2022-08-27T01:01:21.653Z,42.58
2022-08-27T01:03:53.817Z,53.72
2022-08-27T01:06:24.338Z,38.08
2022-08-27T01:09:00.213Z,39.33
2022-08-27T01:11:29.054Z,40.85
2022-08-27T01:14:01.431Z,44.65
2022-08-27T01:16:36.417Z,41.63
2022-08-27T01:19:10.736Z,39.50
2022-08-27T01:21:52.676Z,37.35
2022-08-27T01:25:00.920Z,38.42
2022-08-27T01:27:32.080Z,37.97
2022-08-27T01:30:00.855Z,32.45
2022-08-27T01:32:34.429Z,41.10
2022-08-27T01:35:06.272Z,36.55
2022-08-27T01:37:35.713Z,38.85
2022-08-27T01:40:05.466Z,39.13
2022-08-27T01:42:41.383Z,43.97
2022-08-27T01:45:17.437Z,39.03
2022-08-27T01:47:46.148Z,35.40
2022-08-27T01:50:19.095Z,38.30
2022-08-27T01:52:48.158Z,37.15
2022-08-27T01:55:19.636Z,47.08
2022-08-27T01:57:48.426Z,42.88
2022-08-27T02:00:24.054Z,41.38
2022-08-27T02:02:52.661Z,38.10
2022-08-27T02:05:21.566Z,40.35
2022-08-27T02:07:51.216Z,39.63
2022-08-27T02:10:24.485Z,38.47
2022-08-27T02:12:54.588Z,42.00
2022-08-27T02:15:24.787Z,50.63
2022-08-27T02:17:53.507Z,53.53
2022-08-27T02:20:23.080Z,50.78
2022-08-27T02:22:54.384Z,42.75
2022-08-27T02:25:25.848Z,57.50
2022-08-27T02:28:00.830Z,47.85
2022-08-27T02:30:33.564Z,41.97
2022-08-27T02:33:05.379Z,37.88
2022-08-27T02:35:39.759Z,40.42
2022-08-27T02:38:08.971Z,40.65
2022-08-27T02:40:38.145Z,45.38
2022-08-27T02:43:09.657Z,40.83
2022-08-27T02:45:44.197Z,40.72
2022-08-27T02:48:13.101Z,41.47
2022-08-27T02:50:42.023Z,49.28
2022-08-27T02:53:11.283Z,49.58
2022-08-27T02:55:39.879Z,49.58
2022-08-27T02:58:10.392Z,56.63
2022-08-27T03:00:39.175Z,51.83
2022-08-27T03:03:07.679Z,55.00
2022-08-27T03:05:36.290Z,56.53
2022-08-27T03:08:06.254Z,57.30
2022-08-27T03:10:36.992Z,53.90
2022-08-27T03:13:06.571Z,59.90
2022-08-27T03:15:35.043Z,53.83
2022-08-27T03:18:22.312Z,69.63
2022-08-27T03:20:57.295Z,71.20
2022-08-27T03:23:28.210Z,56.83
2022-08-27T03:26:00.256Z,59.10
2022-08-27T03:28:34.276Z,63.45
2022-08-27T03:31:09.430Z,72.97
2022-08-27T03:33:40.296Z,64.80
2022-08-27T03:36:10.037Z,62.33
2022-08-27T03:38:39.360Z,59.17
2022-08-27T03:41:08.353Z,60.65
2022-08-27T03:43:37.050Z,68.53
2022-08-27T03:46:07.731Z,58.67
2022-08-27T03:48:36.674Z,65.47
2022-08-27T03:51:08.855Z,63.28
2022-08-27T03:53:40.031Z,77.05
2022-08-27T03:56:09.155Z,70.40
2022-08-27T03:58:39.061Z,61.28
2022-08-27T04:01:09.150Z,69.32
2022-08-27T04:03:38.871Z,70.72
2022-08-27T04:06:07.913Z,65.20
2022-08-27T04:08:37.062Z,62.63
2022-08-27T04:11:08.752Z,68.93
2022-08-27T04:13:38.006Z,78.55
2022-08-27T04:16:07.037Z,72.90
2022-08-27T04:18:35.839Z,89.65
2022-08-27T04:21:14.675Z,85.95
2022-08-27T04:23:44.176Z,76.72
2022-08-27T04:26:13.206Z,72.70
2022-08-27T04:28:41.852Z,72.28
2022-08-27T04:31:17.822Z,66.50
2022-08-27T04:33:50.928Z,66.30
2022-08-27T04:36:21.104Z,118.10
2022-08-27T04:38:49.930Z,84.72
2022-08-27T04:41:22.056Z,80.35
2022-08-27T04:43:54.039Z,82.25
2022-08-27T04:46:29.538Z,62.67
2022-08-27T04:48:59.649Z,58.92
2022-08-27T04:51:29.207Z,54.67
2022-08-27T04:54:01.229Z,51.97
2022-08-27T04:56:30.599Z,44.22
2022-08-27T04:58:59.216Z,56.78
2022-08-27T05:01:30.285Z,51.00
2022-08-27T05:04:00.150Z,82.97
2022-08-27T05:06:29.608Z,89.22
2022-08-27T05:09:01.044Z,87.15
2022-08-27T05:11:33.114Z,106.72
2022-08-27T05:14:09.920Z,92.57
2022-08-27T05:16:41.606Z,72.72
2022-08-27T05:19:15.440Z,102.90
2022-08-27T05:21:50.511Z,81.68
2022-08-27T05:24:19.724Z,91.05
2022-08-27T05:26:49.128Z,95.93
2022-08-27T05:29:18.296Z,67.78
2022-08-27T05:31:48.690Z,53.03
2022-08-27T05:34:21.153Z,50.00
2022-08-27T05:36:53.787Z,55.40
2022-08-27T05:39:22.528Z,47.20
2022-08-27T05:41:53.409Z,42.85
2022-08-27T05:44:40.718Z,35.33
2022-08-27T05:47:10.928Z,32.25
2022-08-27T05:49:40.279Z,34.08
2022-08-27T05:52:11.338Z,44.92
2022-08-27T05:54:40.774Z,50.53
2022-08-27T05:57:09.701Z,59.90
2022-08-27T05:59:56.875Z,57.25
2022-08-27T06:02:26.048Z,47.83
2022-08-27T06:04:54.842Z,63.20
2022-08-27T06:07:23.416Z,60.15
2022-08-27T06:09:52.180Z,59.70
2022-08-27T06:12:28.016Z,42.58
2022-08-27T06:14:57.340Z,32.60
2022-08-27T06:17:26.110Z,37.63
2022-08-27T06:19:54.724Z,51.70
2022-08-27T06:22:23.506Z,63.38
2022-08-27T06:24:52.743Z,36.78
2022-08-27T06:27:21.636Z,27.83
2022-08-27T06:29:50.288Z,28.88
2022-08-27T06:32:18.965Z,26.83
2022-08-27T06:34:48.114Z,46.65
2022-08-27T06:37:16.931Z,48.25
2022-08-27T06:39:45.685Z,19.30
2022-08-27T06:42:14.311Z,26.77
2022-08-27T06:44:43.102Z,19.95
2022-08-27T06:47:12.480Z,17.13
2022-08-27T06:49:46.306Z,45.72
2022-08-27T06:52:17.910Z,23.02
2022-08-27T06:54:46.682Z,38.13
2022-08-27T06:57:15.435Z,22.63
2022-08-27T06:59:45.253Z,18.90
2022-08-27T07:02:14.257Z,24.70
2022-08-27T07:04:42.912Z,32.72
2022-08-27T07:07:13.693Z,20.40
2022-08-27T07:09:42.600Z,18.13
2022-08-27T07:12:11.333Z,27.65
2022-08-27T07:14:40.377Z,24.23
2022-08-27T07:17:11.295Z,24.83
2022-08-27T07:19:45.024Z,21.08
2022-08-27T07:22:14.394Z,20.70
2022-08-27T07:24:43.375Z,22.50
2022-08-27T07:27:12.165Z,22.05
2022-08-27T07:29:40.971Z,37.35
2022-08-27T07:32:09.742Z,31.30
2022-08-27T07:34:38.796Z,36.92
2022-08-27T07:37:08.201Z,34.60
2022-08-27T07:39:36.986Z,42.72
2022-08-27T07:42:23.944Z,25.77
2022-08-27T07:44:52.750Z,23.77
2022-08-27T07:47:21.333Z,19.60
2022-08-27T07:49:50.037Z,22.27
2022-08-27T07:52:20.908Z,17.55
2022-08-27T07:54:52.665Z,17.60
2022-08-27T07:57:21.239Z,18.40
2022-08-27T07:59:50.080Z,13.30
2022-08-27T08:02:20.786Z,15.07
2022-08-27T08:04:49.671Z,14.65
2022-08-27T08:07:18.401Z,21.02
2022-08-27T08:09:47.035Z,32.80
2022-08-27T08:12:15.927Z,23.02
2022-08-27T08:14:44.767Z,21.67
2022-08-27T08:17:15.106Z,13.23
2022-08-27T08:20:02.456Z,15.55
2022-08-27T08:22:36.323Z,7.70
2022-08-27T08:25:12.827Z,11.10
2022-08-27T08:27:43.360Z,20.67
2022-08-27T08:30:12.963Z,35.85
2022-08-27T08:32:41.958Z,14.38
2022-08-27T08:35:13.046Z,13.25
2022-08-27T08:37:44.290Z,9.40
2022-08-27T08:40:33.032Z,28.05
2022-08-27T08:43:02.737Z,23.15
2022-08-27T08:45:35.552Z,12.15
2022-08-27T08:48:12.822Z,18.85
2022-08-27T08:50:58.337Z,17.83
2022-08-27T08:54:24.161Z,10.45
2022-08-27T08:57:07.630Z,12.23
2022-08-27T08:59:42.151Z,10.65
2022-08-27T09:04:47.500Z,18.33
2022-08-27T09:07:18.936Z,19.63
2022-08-27T09:09:53.500Z,9.10
2022-08-27T09:15:33.841Z,25.92
2022-08-27T09:18:20.577Z,28.13
2022-08-27T09:20:55.562Z,15.57
2022-08-27T09:23:48.138Z,26.05
2022-08-27T09:26:25.811Z,18.33
2022-08-27T09:29:17.188Z,14.07
2022-08-27T09:31:56.188Z,22.30
2022-08-27T09:34:27.997Z,12.90
2022-08-27T09:37:05.791Z,13.40
2022-08-27T09:39:42.408Z,19.48
2022-08-27T09:42:36.905Z,14.93
2022-08-27T09:45:15.759Z,11.68
2022-08-27T09:47:50.361Z,12.10
2022-08-27T09:50:22.602Z,20.70
2022-08-27T09:53:00.414Z,41.22
2022-08-27T09:55:33.466Z,32.72
2022-08-27T09:58:05.308Z,35.90
2022-08-27T10:00:39.244Z,31.17
2022-08-27T10:03:10.519Z,7.53
2022-08-27T10:05:54.829Z,24.92
2022-08-27T10:08:29.701Z,16.48
2022-08-27T10:11:27.104Z,10.93
2022-08-27T10:14:06.649Z,12.20
2022-08-27T10:16:55.632Z,13.40
2022-08-27T10:19:46.352Z,9.50
2022-08-27T10:23:14.896Z,15.10
2022-08-27T10:26:05.047Z,14.52
2022-08-27T10:28:55.126Z,16.17
2022-08-27T10:31:59.781Z,17.48
2022-08-27T10:34:55.294Z,24.02
2022-08-27T10:37:40.253Z,16.60
2022-08-27T10:40:16.609Z,9.38
2022-08-27T10:43:03.183Z,26.42
2022-08-27T10:46:01.375Z,26.27
2022-08-27T10:48:41.938Z,16.63
2022-08-27T10:51:18.567Z,13.43
2022-08-27T10:54:00.434Z,5.57
2022-08-27T10:56:34.197Z,7.35
2022-08-27T10:59:40.606Z,7.68
2022-08-27T11:02:38.139Z,12.15
2022-08-27T11:05:20.300Z,14.40
2022-08-27T11:08:06.109Z,20.08
2022-08-27T11:10:43.286Z,17.23
2022-08-27T11:13:35.164Z,8.27
2022-08-27T11:16:12.266Z,9.57
2022-08-27T11:18:53.574Z,5.35
2022-08-27T11:21:44.951Z,10.93
2022-08-27T11:24:38.521Z,14.52
2022-08-27T11:27:09.489Z,12.65
2022-08-27T11:30:00.177Z,13.90
2022-08-27T11:32:44.815Z,12.55
2022-08-27T11:35:38.437Z,5.65
2022-08-27T11:38:49.142Z,14.73
2022-08-27T11:41:20.874Z,24.90
2022-08-27T11:43:49.933Z,21.00
2022-08-27T11:46:27.604Z,12.60
2022-08-27T11:49:28.009Z,17.50
2022-08-27T11:52:00.646Z,7.35
2022-08-27T11:54:33.516Z,11.40
2022-08-27T11:57:02.214Z,12.20
2022-08-27T11:59:34.982Z,11.98
2022-08-27T12:02:26.704Z,4.32
2022-08-27T12:05:08.411Z,9.73
2022-08-27T12:07:45.810Z,12.15
2022-08-27T12:10:25.187Z,9.00
2022-08-27T12:13:02.075Z,7.53
2022-08-27T12:15:46.721Z,3.25
2022-08-27T12:18:52.464Z,8.48
2022-08-27T12:22:14.718Z,14.60
2022-08-27T12:24:50.730Z,30.52
2022-08-27T12:27:29.198Z,13.13
2022-08-27T12:30:20.560Z,16.00
2022-08-27T12:32:53.141Z,11.30
2022-08-27T12:35:30.198Z,10.95
2022-08-27T12:38:03.222Z,13.38
2022-08-27T12:41:09.810Z,16.35
2022-08-27T12:43:44.191Z,15.97
2022-08-27T12:46:19.834Z,26.23
2022-08-27T12:49:12.716Z,58.33
2022-08-27T12:52:08.011Z,14.23
2022-08-27T12:54:51.786Z,47.80
2022-08-27T12:57:32.789Z,14.10
2022-08-27T13:00:26.554Z,7.43
2022-08-27T13:03:27.694Z,12.07
2022-08-27T13:05:58.381Z,20.75
2022-08-27T13:08:34.733Z,11.65
2022-08-27T13:11:27.732Z,8.15
2022-08-27T13:14:14.585Z,10.90
2022-08-27T13:16:55.043Z,12.02
2022-08-27T13:19:33.102Z,9.80
2022-08-27T13:22:03.776Z,17.25
2022-08-27T13:24:37.772Z,9.40
2022-08-27T13:27:07.505Z,11.52
2022-08-27T13:29:41.469Z,7.85
2022-08-27T13:32:18.303Z,10.32
2022-08-27T13:34:50.059Z,14.07
2022-08-27T13:37:41.595Z,13.93
2022-08-27T13:40:27.512Z,13.77
2022-08-27T13:43:21.763Z,71.78
2022-08-27T13:45:58.410Z,64.55
2022-08-27T13:48:33.795Z,70.03
2022-08-27T13:51:03.878Z,71.22
2022-08-27T13:53:52.990Z,24.67
2022-08-27T13:56:34.158Z,18.77
2022-08-27T13:59:17.005Z,19.50
2022-08-27T14:02:04.409Z,29.58
2022-08-27T14:05:12.001Z,39.28
2022-08-27T14:07:48.371Z,38.17
2022-08-27T14:10:19.748Z,33.22
2022-08-27T14:12:59.317Z,38.42
2022-08-27T14:15:35.776Z,39.30
2022-08-27T14:18:07.081Z,44.42
2022-08-27T14:20:37.648Z,24.40
2022-08-27T14:23:08.096Z,33.25
2022-08-27T14:25:36.802Z,28.35
2022-08-27T14:28:06.263Z,25.40
2022-08-27T14:30:34.955Z,23.52
2022-08-27T14:33:04.108Z,56.85
2022-08-27T14:35:35.627Z,47.63
2022-08-27T14:38:22.251Z,29.98
2022-08-27T14:40:55.365Z,27.15
2022-08-27T14:43:23.915Z,20.42
2022-08-27T14:45:54.679Z,26.75
2022-08-27T14:48:34.178Z,35.47
2022-08-27T14:51:11.437Z,38.25
2022-08-27T14:53:40.199Z,42.47
2022-08-27T14:56:09.083Z,35.42
2022-08-27T14:58:37.796Z,35.45
2022-08-27T15:01:06.881Z,28.80
2022-08-27T15:03:44.688Z,27.88
2022-08-27T15:06:16.087Z,28.92
2022-08-27T15:08:45.677Z,22.88
2022-08-27T15:11:19.002Z,24.42
2022-08-27T15:13:47.929Z,21.15
2022-08-27T15:16:39.343Z,18.10
2022-08-27T15:19:10.499Z,18.50
2022-08-27T15:21:41.009Z,18.65
2022-08-27T15:24:24.024Z,25.73
2022-08-27T15:26:54.696Z,19.15
2022-08-27T15:29:23.245Z,24.17
2022-08-27T15:31:52.087Z,19.55
2022-08-27T15:34:23.717Z,25.60
2022-08-27T15:36:52.384Z,18.88
2022-08-27T15:39:21.095Z,24.95
2022-08-27T15:42:05.756Z,18.65
2022-08-27T15:44:35.697Z,15.82
2022-08-27T15:47:04.727Z,17.05
2022-08-27T15:49:33.351Z,23.75
2022-08-27T15:52:02.299Z,61.70
2022-08-27T15:54:32.318Z,23.85
2022-08-27T15:57:01.276Z,46.47
2022-08-27T15:59:30.108Z,24.23
2022-08-27T16:01:59.036Z,31.73
2022-08-27T16:04:29.013Z,28.60
2022-08-27T16:06:58.076Z,33.10
2022-08-27T16:09:26.777Z,24.27
2022-08-27T16:11:55.659Z,20.42
2022-08-27T16:14:24.438Z,21.55
2022-08-27T16:16:53.317Z,31.55
2022-08-27T16:19:22.047Z,29.88
2022-08-27T16:21:53.109Z,19.83
2022-08-27T16:24:23.771Z,24.75
2022-08-27T16:26:52.502Z,29.20
2022-08-27T16:29:22.778Z,16.90
2022-08-27T16:31:52.683Z,17.55
2022-08-27T16:34:26.515Z,19.60
2022-08-27T16:36:56.366Z,22.45
2022-08-27T16:39:29.268Z,20.90
2022-08-27T16:42:04.327Z,17.45
2022-08-27T16:44:34.521Z,20.85
2022-08-27T16:47:03.499Z,31.48
2022-08-27T16:49:50.406Z,60.97
2022-08-27T16:52:21.107Z,33.95
2022-08-27T16:54:50.865Z,30.33
2022-08-27T16:57:22.351Z,25.85
2022-08-27T16:59:50.947Z,21.85
2022-08-27T17:02:32.561Z,18.35
2022-08-27T17:05:23.805Z,25.65
2022-08-27T17:07:51.595Z,20.85
2022-08-27T17:10:21.218Z,18.15
2022-08-27T17:12:49.837Z,16.73
2022-08-27T17:15:19.659Z,19.08
2022-08-27T17:17:48.616Z,19.27
2022-08-27T17:20:19.339Z,33.38
2022-08-27T17:22:49.489Z,25.48
2022-08-27T17:25:18.241Z,25.20
2022-08-27T17:27:47.027Z,20.20
2022-08-27T17:30:15.800Z,54.60
2022-08-27T17:32:45.668Z,25.38
2022-08-27T17:35:14.938Z,31.90
2022-08-27T17:37:43.900Z,20.77
2022-08-27T17:40:12.898Z,101.53
2022-08-27T17:42:41.910Z,70.60
2022-08-27T17:45:11.269Z,25.52
2022-08-27T17:47:40.003Z,22.75
2022-08-27T17:50:10.050Z,21.02
2022-08-27T17:52:41.819Z,25.55
2022-08-27T17:55:10.565Z,21.73
2022-08-27T17:57:41.411Z,21.55
2022-08-27T18:00:14.020Z,17.10
2022-08-27T18:02:47.358Z,20.67
2022-08-27T18:05:18.978Z,32.03
2022-08-27T18:07:48.465Z,30.25
2022-08-27T18:10:20.857Z,31.52
2022-08-27T18:12:50.472Z,28.45
2022-08-27T18:15:22.671Z,74.80
2022-08-27T18:17:53.222Z,22.55
2022-08-27T18:20:24.932Z,38.42
2022-08-27T18:22:54.368Z,30.13
2022-08-27T18:25:26.066Z,28.70
2022-08-27T18:27:58.172Z,28.08
2022-08-27T18:30:27.791Z,18.00
2022-08-27T18:32:56.405Z,26.42
2022-08-27T18:35:33.274Z,92.70
2022-08-27T18:38:03.519Z,222.43
2022-08-27T18:40:40.977Z,127.60
2022-08-27T18:43:10.166Z,48.78
2022-08-27T18:45:40.234Z,43.83
2022-08-27T18:48:22.413Z,30.70
2022-08-27T18:50:57.870Z,56.60
2022-08-27T18:53:30.241Z,80.00
2022-08-27T18:55:59.851Z,18.88
2022-08-27T18:58:29.267Z,27.42
2022-08-27T19:01:01.310Z,128.65
2022-08-27T19:03:42.815Z,48.47
2022-08-27T19:06:16.942Z,46.90
2022-08-27T19:08:54.523Z,67.38
2022-08-27T19:11:27.459Z,81.68
2022-08-27T19:13:57.063Z,41.20
2022-08-27T19:16:39.696Z,29.15
2022-08-27T19:19:08.607Z,66.93
2022-08-27T19:21:38.859Z,26.98
2022-08-27T19:24:08.623Z,48.08
2022-08-27T19:26:37.576Z,25.25
2022-08-27T19:29:06.817Z,26.15
2022-08-27T19:31:37.917Z,19.42
2022-08-27T19:34:08.296Z,22.90
2022-08-27T19:36:41.198Z,29.15
2022-08-27T19:39:13.013Z,16.63
2022-08-27T19:41:41.751Z,23.80
2022-08-27T19:44:10.637Z,17.83
2022-08-27T19:46:39.414Z,20.85
2022-08-27T19:49:08.195Z,15.45
2022-08-27T19:51:36.838Z,16.48
2022-08-27T19:54:05.562Z,19.10
2022-08-27T19:56:35.090Z,16.05
2022-08-27T19:59:18.946Z,13.40
2022-08-27T20:01:49.853Z,24.25
2022-08-27T20:04:18.664Z,15.68
2022-08-27T20:06:49.504Z,29.77
2022-08-27T20:09:19.467Z,20.98
2022-08-27T20:11:51.827Z,21.52
2022-08-27T20:14:20.766Z,33.38
2022-08-27T20:16:49.752Z,18.20
2022-08-27T20:19:18.975Z,19.75
2022-08-27T20:21:47.610Z,19.10
2022-08-27T20:24:16.308Z,25.17
2022-08-27T20:26:44.777Z,11.70
2022-08-27T20:29:22.412Z,11.15
2022-08-27T20:32:02.842Z,12.60
2022-08-27T20:34:33.319Z,10.73
2022-08-27T20:37:05.845Z,49.97
2022-08-27T20:39:34.589Z,10.85
2022-08-27T20:42:03.245Z,15.05
2022-08-27T20:44:32.389Z,32.83
2022-08-27T20:47:02.644Z,13.55
2022-08-27T20:49:32.273Z,20.98
2022-08-27T20:52:02.584Z,19.67
2022-08-27T20:54:32.165Z,15.73
2022-08-27T20:57:01.085Z,15.68
2022-08-27T20:59:48.883Z,16.15
2022-08-27T21:02:23.358Z,19.90
2022-08-27T21:04:52.691Z,54.05
2022-08-27T21:07:22.947Z,74.72
2022-08-27T21:09:57.074Z,43.10
2022-08-27T21:12:30.544Z,14.07
2022-08-27T21:15:00.341Z,32.88
2022-08-27T21:17:30.383Z,21.05
2022-08-27T21:19:59.071Z,35.75
2022-08-27T21:22:28.238Z,34.45
2022-08-27T21:24:57.103Z,17.55
2022-08-27T21:27:26.102Z,16.83
2022-08-27T21:29:54.764Z,33.67
2022-08-27T21:32:23.623Z,13.30
2022-08-27T21:34:52.448Z,26.52
2022-08-27T21:37:22.502Z,33.42
2022-08-27T21:39:51.105Z,57.72
2022-08-27T21:42:19.951Z,25.70
2022-08-27T21:44:48.631Z,29.48
2022-08-27T21:47:17.558Z,30.15
2022-08-27T21:49:46.263Z,23.52
2022-08-27T21:52:14.891Z,18.65
2022-08-27T21:54:44.163Z,13.10
2022-08-27T21:57:15.587Z,14.07
2022-08-27T21:59:47.622Z,67.60
2022-08-27T22:02:38.866Z,24.92
2022-08-27T22:05:07.462Z,34.10
2022-08-27T22:07:36.273Z,52.65
2022-08-27T22:10:06.261Z,56.97
2022-08-27T22:12:35.801Z,25.90
2022-08-27T22:15:06.611Z,27.08
2022-08-27T22:17:35.715Z,42.00
2022-08-27T22:20:08.345Z,35.35
2022-08-27T22:22:36.985Z,24.80
2022-08-27T22:25:07.527Z,81.85
2022-08-27T22:27:36.459Z,26.35
2022-08-27T22:30:10.900Z,21.02
2022-08-27T22:32:40.464Z,23.63
2022-08-27T22:35:09.992Z,57.25
2022-08-27T22:37:39.204Z,46.78
2022-08-27T22:40:19.894Z,38.92
2022-08-27T22:42:49.974Z,47.63
2022-08-27T22:45:19.847Z,42.17
2022-08-27T22:47:48.619Z,72.53
2022-08-27T22:50:18.344Z,47.92
2022-08-27T22:52:48.418Z,22.95
2022-08-27T22:55:20.887Z,16.13
2022-08-27T22:57:55.256Z,24.17
2022-08-27T23:00:29.863Z,28.42
2022-08-27T23:02:59.756Z,24.23
2022-08-27T23:05:28.809Z,13.23
2022-08-27T23:08:10.530Z,19.73
2022-08-27T23:10:39.552Z,16.05
2022-08-27T23:13:08.112Z,23.15
2022-08-27T23:15:37.053Z,14.10
2022-08-27T23:18:05.593Z,71.68
2022-08-27T23:20:35.783Z,60.10
2022-08-27T23:23:04.498Z,20.65
2022-08-27T23:25:53.088Z,35.22
2022-08-27T23:28:22.523Z,22.65
2022-08-27T23:30:51.818Z,48.70
2022-08-27T23:33:20.674Z,17.27
2022-08-27T23:35:52.153Z,22.20
2022-08-27T23:38:22.364Z,16.13
2022-08-27T23:40:51.433Z,84.20
2022-08-27T23:43:21.139Z,44.92
2022-08-27T23:45:50.797Z,30.98
2022-08-27T23:48:20.712Z,36.25
2022-08-27T23:50:49.475Z,17.30
2022-08-27T23:53:18.304Z,11.52
2022-08-27T23:55:46.888Z,113.57
2022-08-27T23:58:15.588Z,103.72
